Time;durP1;ratioP1;P1;durP2;ratioP2;P2;SDS_P1;SDS_P2;PMS_P1;PMS_P2;Temp;Humidity;BMP_temperature;BMP_pressure;BME280_temperature;BME280_humidity;BME280_pressure;Samples;Min_cycle;Max_cycle;Signal;HPM_P1;HPM_P2
2022/05/17 00:01:54;;;;;;;4.67;3.70;;;16.80;90.20;;;;;;947544;146;27403;-75
2022/05/17 00:04:21;;;;;;;4.40;4.00;;;16.70;90.30;;;;;;945836;146;27394;-75
2022/05/17 00:06:47;;;;;;;6.07;4.40;;;16.70;90.30;;;;;;946277;146;27934;-75
2022/05/17 00:09:16;;;;;;;4.03;3.63;;;16.70;90.40;;;;;;946429;146;27365;-75
2022/05/17 00:11:40;;;;;;;4.10;3.80;;;16.60;90.50;;;;;;946307;147;27267;-75
2022/05/17 00:14:07;;;;;;;4.90;4.43;;;16.60;90.60;;;;;;946636;146;27458;-75
2022/05/17 00:16:34;;;;;;;4.80;4.40;;;16.50;90.90;;;;;;945725;146;27341;-74
2022/05/17 00:19:00;;;;;;;4.20;3.37;;;16.50;91.20;;;;;;947181;146;27397;-74
2022/05/17 00:21:27;;;;;;;4.33;3.93;;;16.50;91.30;;;;;;946013;146;27377;-75
2022/05/17 00:23:53;;;;;;;5.40;4.20;;;16.50;91.40;;;;;;946215;146;27345;-75
2022/05/17 00:26:21;;;;;;;3.57;3.27;;;16.50;91.50;;;;;;948000;146;27310;-74
2022/05/17 00:28:47;;;;;;;4.40;4.03;;;16.40;91.50;;;;;;947034;146;28055;-75
2022/05/17 00:31:13;;;;;;;4.40;4.00;;;16.40;91.60;;;;;;946336;146;27307;-75
2022/05/17 00:33:40;;;;;;;3.90;3.60;;;16.40;91.60;;;;;;948366;146;27826;-75
2022/05/17 00:36:06;;;;;;;6.53;4.17;;;16.40;91.70;;;;;;947626;146;27447;-75
2022/05/17 00:38:33;;;;;;;5.37;4.33;;;16.30;91.80;;;;;;946971;146;27325;-75
2022/05/17 00:41:00;;;;;;;4.37;4.07;;;16.30;91.90;;;;;;946305;146;27420;-75
2022/05/17 00:44:42;;;;;;;5.10;4.33;;;16.20;92.10;;;;;;947912;146;27293;-74
2022/05/17 00:45:59;;;;;;;4.83;4.30;;;16.20;92.30;;;;;;945626;146;27446;-74
2022/05/17 00:48:25;;;;;;;4.70;4.30;;;16.20;92.30;;;;;;946276;146;27502;-75
2022/05/17 00:50:52;;;;;;;4.40;4.00;;;16.20;92.40;;;;;;948045;149;27340;-75
2022/05/17 00:53:21;;;;;;;4.37;3.97;;;16.20;92.50;;;;;;948210;149;27416;-74
2022/05/17 00:55:50;;;;;;;5.53;4.30;;;16.10;92.50;;;;;;948152;149;27312;-74
2022/05/17 00:58:17;;;;;;;7.90;4.37;;;16.10;92.60;;;;;;948250;149;27714;-75
2022/05/17 01:00:49;;;;;;;4.17;3.83;;;16.00;92.60;;;;;;947887;149;27385;-75
2022/05/17 01:03:16;;;;;;;4.20;3.90;;;16.00;92.70;;;;;;931757;149;27345;-74
2022/05/17 01:05:42;;;;;;;4.50;4.10;;;16.00;92.80;;;;;;947625;149;27318;-74
2022/05/17 01:08:09;;;;;;;4.37;3.90;;;15.90;92.90;;;;;;947593;149;27344;-74
2022/05/17 01:10:35;;;;;;;4.87;4.47;;;15.90;92.90;;;;;;947556;149;27353;-74
2022/05/17 01:15:47;;;;;;;3.97;3.43;;;15.80;93.00;;;;;;948304;149;27297;-74
2022/05/17 01:18:14;;;;;;;4.47;3.97;;;15.80;92.90;;;;;;947950;149;27422;-74
2022/05/17 01:20:40;;;;;;;4.63;4.23;;;15.80;93.10;;;;;;948847;149;27367;-74
2022/05/17 01:23:07;;;;;;;4.67;4.27;;;15.70;93.20;;;;;;948463;149;27404;-75
2022/05/17 01:25:34;;;;;;;4.50;4.13;;;15.70;93.40;;;;;;947253;149;27369;-75
2022/05/17 01:28:06;;;;;;;4.20;3.87;;;15.60;93.50;;;;;;947521;149;27389;-74
2022/05/17 01:30:32;;;;;;;4.07;3.67;;;15.60;93.60;;;;;;949402;149;27340;-75
2022/05/17 01:32:59;;;;;;;4.07;3.63;;;15.60;93.60;;;;;;947914;149;27348;-74
2022/05/17 01:35:25;;;;;;;4.83;4.43;;;15.60;93.60;;;;;;948338;149;27773;-75
2022/05/17 01:37:54;;;;;;;4.80;4.13;;;15.60;93.70;;;;;;947211;149;27949;-74
2022/05/17 01:40:19;;;;;;;4.33;3.97;;;15.50;93.70;;;;;;947893;149;27379;-74
2022/05/17 01:42:45;;;;;;;4.50;4.10;;;15.50;93.70;;;;;;947488;149;27322;-75
2022/05/17 01:45:12;;;;;;;3.87;3.57;;;15.50;93.80;;;;;;948019;149;27333;-74
2022/05/17 01:47:38;;;;;;;4.60;4.20;;;15.40;93.80;;;;;;947639;149;27475;-75
2022/05/17 01:50:05;;;;;;;4.53;4.10;;;15.40;93.90;;;;;;948357;146;27397;-75
2022/05/17 01:52:31;;;;;;;5.17;4.77;;;15.40;94.00;;;;;;946264;146;27403;-75
2022/05/17 01:54:58;;;;;;;4.87;4.50;;;15.30;94.10;;;;;;945733;146;27741;-75
2022/05/17 01:57:25;;;;;;;4.90;4.50;;;15.30;94.20;;;;;;948012;146;27316;-74
2022/05/17 01:59:51;;;;;;;4.57;4.17;;;15.30;94.40;;;;;;946237;146;27336;-75
2022/05/17 02:02:18;;;;;;;5.13;4.73;;;15.30;94.40;;;;;;946451;146;27446;-75
2022/05/17 02:04:44;;;;;;;4.70;4.30;;;15.20;94.40;;;;;;946472;146;27299;-75
2022/05/17 02:07:11;;;;;;;4.83;4.30;;;15.20;94.40;;;;;;947333;146;27414;-75
2022/05/17 02:09:38;;;;;;;4.83;4.33;;;15.20;94.60;;;;;;947744;146;27322;-75
2022/05/17 02:12:04;;;;;;;4.70;4.30;;;15.20;94.70;;;;;;946147;146;27421;-74
2022/05/17 02:14:31;;;;;;;4.50;4.20;;;15.10;94.80;;;;;;947551;146;27434;-75
2022/05/17 02:16:57;;;;;;;4.97;4.57;;;15.20;94.90;;;;;;945597;146;27349;-75
2022/05/17 02:19:24;;;;;;;4.47;4.17;;;15.20;95.00;;;;;;946706;146;27426;-75
2022/05/17 02:21:51;;;;;;;5.00;4.60;;;15.20;95.10;;;;;;946092;146;27266;-74
2022/05/17 02:24:17;;;;;;;4.73;4.40;;;15.10;95.10;;;;;;946965;146;27289;-74
2022/05/17 02:26:44;;;;;;;5.17;4.67;;;15.10;95.10;;;;;;947110;146;27374;-74
2022/05/17 02:29:10;;;;;;;4.90;4.50;;;15.10;95.20;;;;;;947463;146;27361;-74
2022/05/17 02:31:37;;;;;;;4.83;4.43;;;15.10;95.30;;;;;;945853;146;27332;-74
2022/05/17 02:34:03;;;;;;;5.30;4.80;;;15.00;95.30;;;;;;947247;146;27343;-74
2022/05/17 02:36:30;;;;;;;4.80;4.40;;;15.00;95.40;;;;;;946313;146;27291;-75
2022/05/17 02:38:57;;;;;;;4.83;4.43;;;15.00;95.50;;;;;;947073;146;28466;-74
2022/05/17 02:41:26;;;;;;;5.50;5.03;;;15.00;95.60;;;;;;946675;146;27361;-74
2022/05/17 02:43:53;;;;;;;6.77;4.80;;;15.00;95.70;;;;;;946034;147;27341;-73
2022/05/17 02:46:19;;;;;;;5.40;4.90;;;15.00;95.70;;;;;;947064;146;27306;-73
2022/05/17 02:48:45;;;;;;;5.40;4.97;;;15.00;95.70;;;;;;946250;146;28051;-73
2022/05/17 02:51:18;;;;;;;5.23;4.70;;;15.00;95.70;;;;;;947187;149;27391;-73
2022/05/17 02:53:45;;;;;;;4.80;4.40;;;14.90;95.70;;;;;;948436;149;27961;-73
2022/05/17 02:56:11;;;;;;;4.80;4.40;;;14.90;95.70;;;;;;946561;149;27325;-73
2022/05/17 02:58:38;;;;;;;4.90;4.50;;;14.90;95.70;;;;;;947671;149;27305;-73
2022/05/17 03:01:05;;;;;;;5.20;4.70;;;14.90;95.70;;;;;;947489;149;27337;-73
2022/05/17 03:03:31;;;;;;;5.17;4.33;;;14.80;95.60;;;;;;948040;149;27422;-73
2022/05/17 03:05:58;;;;;;;5.13;4.70;;;14.80;95.60;;;;;;948059;149;27355;-73
2022/05/17 03:08:24;;;;;;;6.33;5.73;;;14.80;95.60;;;;;;947893;149;27349;-73
2022/05/17 03:10:51;;;;;;;5.77;5.20;;;14.70;95.70;;;;;;946776;149;27347;-73
2022/05/17 03:13:17;;;;;;;5.47;4.90;;;14.70;95.60;;;;;;950281;148;27338;-73
2022/05/17 03:15:44;;;;;;;5.00;4.60;;;14.70;95.60;;;;;;947269;149;27300;-73
2022/05/17 03:18:11;;;;;;;6.17;4.63;;;14.70;95.70;;;;;;948778;149;27381;-73
2022/05/17 03:20:37;;;;;;;5.27;4.87;;;14.60;95.70;;;;;;948651;149;28051;-73
2022/05/17 03:23:04;;;;;;;5.77;5.23;;;14.60;95.80;;;;;;946560;149;27391;-73
2022/05/17 03:25:30;;;;;;;5.80;5.30;;;14.60;95.90;;;;;;948058;148;27245;-73
2022/05/17 03:27:57;;;;;;;5.53;4.90;;;14.50;96.00;;;;;;947267;149;27333;-73
2022/05/17 03:30:24;;;;;;;5.10;4.70;;;14.50;96.10;;;;;;949307;149;27369;-73
2022/05/17 03:32:51;;;;;;;6.90;5.20;;;14.50;96.20;;;;;;948409;149;27331;-73
2022/05/17 03:35:17;;;;;;;6.10;5.60;;;14.50;96.30;;;;;;947913;149;27398;-73
2022/05/17 03:37:43;;;;;;;6.40;5.80;;;14.50;96.40;;;;;;948247;149;27337;-73
2022/05/17 03:40:11;;;;;;;6.40;5.07;;;14.40;96.50;;;;;;947622;149;27317;-73
2022/05/17 03:42:37;;;;;;;7.90;5.93;;;14.50;96.70;;;;;;947274;149;27419;-73
2022/05/17 03:45:03;;;;;;;5.60;5.10;;;14.40;96.80;;;;;;949431;149;27379;-73
2022/05/17 03:47:30;;;;;;;5.67;4.87;;;14.40;97.00;;;;;;948313;149;27458;-73
2022/05/17 03:49:56;;;;;;;6.03;5.13;;;14.40;97.00;;;;;;948161;149;27354;-73
2022/05/17 03:52:26;;;;;;;6.77;4.50;;;14.50;97.10;;;;;;949262;146;27343;-73
2022/05/17 03:54:56;;;;;;;5.80;5.30;;;14.50;97.10;;;;;;946977;146;27452;-73
2022/05/17 03:57:22;;;;;;;6.37;5.13;;;14.50;97.00;;;;;;946922;146;27347;-73
2022/05/17 03:59:48;;;;;;;4.83;4.43;;;14.50;97.10;;;;;;946233;146;27326;-73
2022/05/17 04:02:15;;;;;;;5.30;4.80;;;14.50;97.10;;;;;;949315;146;27428;-73
2022/05/17 04:04:42;;;;;;;5.37;4.93;;;14.50;97.20;;;;;;947731;146;27399;-73
2022/05/17 04:07:08;;;;;;;7.03;5.50;;;14.50;97.30;;;;;;947307;146;27431;-73
2022/05/17 04:09:35;;;;;;;5.20;4.77;;;14.60;97.30;;;;;;946614;147;27365;-73
2022/05/17 04:12:01;;;;;;;5.57;5.17;;;14.60;97.30;;;;;;947587;146;28845;-73
2022/05/17 04:14:28;;;;;;;5.57;5.07;;;14.60;97.40;;;;;;946987;146;27357;-73
2022/05/17 04:16:54;;;;;;;6.07;5.47;;;14.60;97.60;;;;;;948590;146;27402;-73
2022/05/17 04:19:21;;;;;;;5.33;4.83;;;14.60;97.80;;;;;;947233;147;27314;-73
2022/05/17 04:21:48;;;;;;;5.30;4.80;;;14.70;97.90;;;;;;946696;146;27369;-73
2022/05/17 04:24:14;;;;;;;6.80;5.30;;;14.70;98.10;;;;;;945484;147;27357;-73
2022/05/17 04:26:41;;;;;;;6.40;5.50;;;14.80;98.30;;;;;;946891;147;27317;-73
2022/05/17 04:29:07;;;;;;;6.37;5.77;;;14.80;98.40;;;;;;947653;146;27405;-73
2022/05/17 04:31:34;;;;;;;6.40;5.87;;;14.90;98.70;;;;;;945760;146;27336;-73
2022/05/17 04:34:01;;;;;;;5.90;5.40;;;15.00;98.90;;;;;;946148;146;27354;-72
2022/05/17 04:36:27;;;;;;;6.43;5.83;;;15.10;99.10;;;;;;947074;146;27746;-73
2022/05/17 04:38:54;;;;;;;6.70;6.10;;;15.20;99.30;;;;;;945464;147;28543;-73
2022/05/17 04:41:20;;;;;;;6.47;5.87;;;15.30;99.50;;;;;;945474;146;27286;-73
2022/05/17 04:43:47;;;;;;;6.55;5.95;;;15.50;99.70;;;;;;946963;146;27346;-73
2022/05/17 04:46:14;;;;;;;6.57;5.97;;;15.60;99.90;;;;;;946375;146;27324;-73
2022/05/17 04:48:40;;;;;;;6.47;5.87;;;15.80;99.90;;;;;;946203;146;27369;-73
2022/05/17 04:51:07;;;;;;;7.13;5.77;;;16.00;99.90;;;;;;947662;146;27420;-73
2022/05/17 04:53:33;;;;;;;6.10;5.53;;;16.20;99.90;;;;;;948390;149;27316;-73
2022/05/17 04:56:00;;;;;;;5.60;5.20;;;16.50;99.90;;;;;;948733;149;27347;-73
2022/05/17 04:58:26;;;;;;;5.80;5.40;;;16.90;99.90;;;;;;948299;149;27408;-73
2022/05/17 05:00:53;;;;;;;5.60;5.15;;;17.20;99.90;;;;;;948745;149;27450;-73
2022/05/17 05:03:20;;;;;;;5.17;4.67;;;17.60;99.90;;;;;;947188;149;27357;-73
2022/05/17 05:05:47;;;;;;;5.83;5.22;;;18.00;99.90;;;;;;948947;149;27317;-73
2022/05/17 05:08:13;;;;;;;5.25;4.78;;;18.40;99.90;;;;;;947881;149;27281;-73
2022/05/17 05:10:42;;;;;;;5.70;5.15;;;18.90;99.90;;;;;;948818;149;27432;-73
2022/05/17 05:13:06;;;;;;;5.25;4.75;;;19.40;99.90;;;;;;948288;149;27340;-74
2022/05/17 05:15:33;;;;;;;4.87;4.47;;;20.00;99.90;;;;;;947198;149;27387;-74
2022/05/17 05:17:59;;;;;;;5.03;4.55;;;20.70;99.90;;;;;;948471;149;27328;-74
2022/05/17 05:20:26;;;;;;;5.42;4.85;;;21.30;99.90;;;;;;947285;149;27417;-74
2022/05/17 05:22:52;;;;;;;5.37;4.87;;;21.90;99.70;;;;;;947674;149;27304;-74
2022/05/17 05:25:19;;;;;;;5.50;5.00;;;22.50;98.40;;;;;;947701;149;27845;-74
2022/05/17 05:27:46;;;;;;;5.22;4.72;;;23.20;96.80;;;;;;947824;149;27321;-74
2022/05/17 05:30:12;;;;;;;5.42;4.80;;;23.80;95.50;;;;;;948601;149;27377;-73
2022/05/17 05:32:39;;;;;;;6.33;4.45;;;24.40;94.30;;;;;;948812;149;27414;-74
2022/05/17 05:35:06;;;;;;;6.58;4.80;;;25.00;92.90;;;;;;948531;149;27439;-74
2022/05/17 05:37:32;;;;;;;4.92;4.37;;;25.70;91.80;;;;;;948144;148;27419;-74
2022/05/17 05:39:59;;;;;;;4.67;4.28;;;26.30;90.40;;;;;;947842;149;27408;-75
2022/05/17 05:42:25;;;;;;;5.50;5.00;;;27.00;88.70;;;;;;948686;149;27447;-74
2022/05/17 05:44:52;;;;;;;5.20;4.80;;;27.60;85.50;;;;;;948881;149;27352;-74
2022/05/17 05:47:19;;;;;;;5.40;4.90;;;28.20;81.60;;;;;;949910;149;27344;-74
2022/05/17 05:49:46;;;;;;;5.30;4.80;;;28.80;78.50;;;;;;950360;148;27408;-75
2022/05/17 05:52:12;;;;;;;5.12;4.72;;;29.40;75.40;;;;;;947061;147;27378;-75
2022/05/17 05:54:38;;;;;;;4.92;4.53;;;29.80;73.10;;;;;;947412;146;27358;-75
2022/05/17 05:57:05;;;;;;;4.42;4.03;;;30.20;71.00;;;;;;947893;146;27342;-74
2022/05/17 05:59:32;;;;;;;4.92;4.22;;;30.60;69.70;;;;;;946548;146;27400;-74
2022/05/17 06:01:58;;;;;;;4.40;3.92;;;31.00;68.80;;;;;;945781;146;27291;-75
2022/05/17 06:04:27;;;;;;;4.78;4.20;;;31.60;67.90;;;;;;946131;146;27356;-76
2022/05/17 06:06:51;;;;;;;4.92;4.53;;;32.10;66.20;;;;;;946016;146;27406;-75
2022/05/17 06:09:18;;;;;;;4.28;3.80;;;32.60;65.40;;;;;;947707;146;27347;-76
2022/05/17 06:11:44;;;;;;;3.83;3.52;;;33.10;64.10;;;;;;946685;146;27463;-75
2022/05/17 06:14:11;;;;;;;4.20;3.83;;;33.70;63.20;;;;;;946225;146;26233;-76
2022/05/17 06:16:38;;;;;;;4.70;4.12;;;34.20;61.70;;;;;;947656;146;26330;-76
2022/05/17 06:19:04;;;;;;;4.33;3.92;;;34.80;60.10;;;;;;948043;146;26201;-76
2022/05/17 06:21:31;;;;;;;4.42;4.03;;;35.40;58.80;;;;;;947398;146;26273;-76
2022/05/17 06:23:57;;;;;;;4.72;4.25;;;35.90;57.30;;;;;;948229;146;26256;-76
2022/05/17 06:26:24;;;;;;;5.90;4.28;;;36.40;55.80;;;;;;947179;146;26319;-76
2022/05/17 06:28:51;;;;;;;4.30;3.90;;;36.70;54.90;;;;;;947370;146;26262;-76
2022/05/17 06:31:17;;;;;;;5.05;4.55;;;37.00;53.70;;;;;;947612;146;26182;-76
2022/05/17 06:33:44;;;;;;;4.87;4.37;;;37.20;52.60;;;;;;946080;147;26419;-76
2022/05/17 06:36:10;;;;;;;4.28;3.98;;;37.40;51.60;;;;;;947056;146;26261;-75
2022/05/17 06:38:37;;;;;;;4.17;3.72;;;37.50;51.20;;;;;;947973;146;26398;-76
2022/05/17 06:41:04;;;;;;;5.40;3.95;;;37.60;50.60;;;;;;946639;146;26214;-76
2022/05/17 06:43:30;;;;;;;4.35;4.00;;;37.80;50.50;;;;;;947720;146;26264;-75
2022/05/17 06:45:57;;;;;;;4.85;3.98;;;38.00;50.40;;;;;;947984;146;26329;-76
2022/05/17 06:48:23;;;;;;;4.42;4.12;;;38.30;49.80;;;;;;946805;146;26276;-75
2022/05/17 06:50:50;;;;;;;3.45;3.22;;;38.50;49.00;;;;;;946926;146;27346;-76
2022/05/17 06:53:16;;;;;;;4.33;3.92;;;38.70;48.30;;;;;;946452;146;26289;-75
2022/05/17 06:55:43;;;;;;;4.83;4.42;;;38.90;47.80;;;;;;948462;149;26252;-75
2022/05/17 06:58:10;;;;;;;5.67;4.20;;;39.00;47.10;;;;;;948590;149;26158;-76
2022/05/17 07:00:36;;;;;;;4.10;3.70;;;39.20;46.60;;;;;;948178;149;26382;-76
2022/05/17 07:03:03;;;;;;;4.20;3.83;;;39.30;46.20;;;;;;948709;149;26256;-75
2022/05/17 07:05:29;;;;;;;4.55;3.92;;;39.40;45.90;;;;;;948350;149;26270;-76
2022/05/17 07:07:56;;;;;;;4.75;4.28;;;39.60;45.70;;;;;;948445;149;26173;-76
2022/05/17 07:13:10;;;;;;;4.80;4.05;;;40.00;45.10;;;;;;947099;149;26269;-75
2022/05/17 07:15:36;;;;;;;3.65;3.45;;;40.30;44.80;;;;;;947081;149;26388;-76
2022/05/17 07:18:03;;;;;;;3.95;3.55;;;40.60;44.40;;;;;;947251;149;27828;-76
2022/05/17 07:20:29;;;;;;;4.08;3.77;;;40.90;43.80;;;;;;948832;148;26280;-76
2022/05/17 07:22:56;;;;;;;4.33;3.67;;;41.10;43.10;;;;;;948591;149;26210;-77
2022/05/17 07:25:23;;;;;;;3.75;3.40;;;41.30;42.50;;;;;;948350;149;26268;-76
2022/05/17 07:27:49;;;;;;;3.92;3.58;;;41.40;41.70;;;;;;948461;149;27374;-75
2022/05/17 07:30:16;;;;;;;3.75;3.45;;;41.40;40.90;;;;;;948555;149;26217;-75
2022/05/17 07:32:42;;;;;;;4.45;3.40;;;41.20;40.10;;;;;;949069;149;26318;-76
2022/05/17 07:35:09;;;;;;;5.37;2.92;;;41.00;39.80;;;;;;948066;149;26245;-76
2022/05/17 07:37:35;;;;;;;5.15;3.50;;;40.70;40.20;;;;;;948883;149;26325;-76
2022/05/17 07:40:02;;;;;;;4.25;3.70;;;40.40;40.00;;;;;;948577;149;26384;-76
2022/05/17 07:42:29;;;;;;;3.70;3.40;;;40.20;40.20;;;;;;948349;149;26272;-76
2022/05/17 07:44:55;;;;;;;4.67;3.80;;;40.20;40.40;;;;;;947605;149;26333;-76
2022/05/17 07:47:22;;;;;;;3.72;3.40;;;40.20;40.70;;;;;;948623;149;26189;-76
2022/05/17 07:49:48;;;;;;;7.87;4.20;;;40.40;40.80;;;;;;948990;149;26216;-76
2022/05/17 07:52:15;;;;;;;4.10;3.20;;;40.70;40.90;;;;;;948731;148;26385;-75
2022/05/17 07:54:43;;;;;;;3.92;3.37;;;41.10;40.60;;;;;;948185;149;28308;-75
2022/05/17 07:57:08;;;;;;;3.85;3.55;;;41.60;40.20;;;;;;946947;149;26747;-76
2022/05/17 07:59:35;;;;;;;3.90;3.42;;;42.00;39.60;;;;;;949034;149;26338;-76
2022/05/17 08:02:01;;;;;;;3.98;3.60;;;42.50;39.00;;;;;;948534;149;26186;-76
2022/05/17 08:04:31;;;;;;;3.83;3.15;;;42.90;38.30;;;;;;947565;149;26280;-77
2022/05/17 08:06:56;;;;;;;3.20;2.67;;;43.20;37.60;;;;;;947491;149;26292;-76
2022/05/17 08:09:21;;;;;;;3.58;2.85;;;43.40;36.90;;;;;;948167;149;26233;-76
2022/05/17 08:11:48;;;;;;;3.50;2.95;;;43.50;36.30;;;;;;948714;149;26337;-76
2022/05/17 08:14:15;;;;;;;3.35;2.95;;;43.60;35.70;;;;;;949894;149;26213;-76
2022/05/17 08:16:42;;;;;;;2.80;2.58;;;43.60;35.20;;;;;;948116;149;26372;-75
2022/05/17 08:19:07;;;;;;;4.12;3.08;;;43.50;34.80;;;;;;948614;149;26354;-75
2022/05/17 08:21:34;;;;;;;3.77;2.47;;;43.40;34.90;;;;;;948111;149;26277;-76
2022/05/17 08:24:01;;;;;;;2.45;2.25;;;43.40;34.90;;;;;;948474;148;26241;-76
2022/05/17 08:29:12;;;;;;;3.77;2.90;;;43.50;34.80;;;;;;950011;149;26420;-76
2022/05/17 08:31:39;;;;;;;3.12;2.22;;;43.80;34.80;;;;;;949056;149;26296;-76
2022/05/17 08:34:08;;;;;;;3.27;2.60;;;44.10;34.30;;;;;;949305;149;26266;-76
2022/05/17 08:36:32;;;;;;;9.93;2.72;;;44.30;33.90;;;;;;947828;149;26251;-76
2022/05/17 08:38:58;;;;;;;5.80;2.58;;;44.60;33.50;;;;;;946821;149;26287;-76
2022/05/17 08:41:25;;;;;;;3.37;2.25;;;44.90;33.30;;;;;;948506;149;26257;-76
2022/05/17 08:44:04;;;;;;;2.62;2.40;;;45.00;32.60;;;;;;949644;149;26346;-77
2022/05/17 08:46:39;;;;;;;3.83;2.35;;;45.30;32.10;;;;;;948303;149;26273;-76
2022/05/17 08:49:15;;;;;;;3.17;2.45;;;45.50;31.90;;;;;;948004;149;26289;-76
2022/05/17 08:51:44;;;;;;;3.25;2.33;;;45.70;31.60;;;;;;948635;149;27044;-76
2022/05/17 08:54:13;;;;;;;4.12;2.22;;;45.90;31.40;;;;;;947399;146;26293;-77
2022/05/17 08:56:40;;;;;;;2.37;2.17;;;45.90;30.60;;;;;;949558;146;26345;-76
2022/05/17 08:59:06;;;;;;;2.50;2.30;;;46.00;30.30;;;;;;947305;146;26314;-76
2022/05/17 09:01:33;;;;;;;2.80;2.12;;;46.00;29.90;;;;;;947449;146;26245;-75
2022/05/17 09:04:00;;;;;;;3.45;2.37;;;45.90;29.90;;;;;;947691;146;26241;-76
2022/05/17 09:06:32;;;;;;;6.42;2.52;;;45.90;29.90;;;;;;927897;146;26389;-77
2022/05/17 09:09:10;;;;;;;2.80;2.35;;;45.90;29.80;;;;;;946614;146;26280;-75
2022/05/17 09:11:43;;;;;;;2.75;2.55;;;46.00;29.70;;;;;;947374;146;26240;-76
2022/05/17 09:14:09;;;;;;;4.10;2.55;;;45.90;29.60;;;;;;946741;146;26259;-76
2022/05/17 09:16:36;;;;;;;3.92;2.42;;;45.90;29.50;;;;;;947637;146;26260;-76
2022/05/17 09:19:03;;;;;;;2.67;2.05;;;45.90;28.70;;;;;;947537;146;26241;-76
2022/05/17 09:21:32;;;;;;;3.42;2.35;;;45.70;28.10;;;;;;947934;146;26362;-76
2022/05/17 09:23:59;;;;;;;2.67;1.82;;;45.30;28.20;;;;;;945243;146;26314;-75
2022/05/17 09:26:25;;;;;;;2.62;1.85;;;44.80;28.30;;;;;;946337;146;26233;-76
2022/05/17 09:29:04;;;;;;;3.22;2.15;;;44.30;28.00;;;;;;946413;146;26224;-76
2022/05/17 09:31:31;;;;;;;4.60;2.20;;;43.70;28.20;;;;;;946139;146;26271;-76
2022/05/17 09:33:57;;;;;;;3.17;2.05;;;43.10;28.40;;;;;;946645;146;26276;-75
2022/05/17 09:36:24;;;;;;;2.65;1.80;;;42.70;28.50;;;;;;947441;146;26342;-76
2022/05/17 09:38:50;;;;;;;2.40;2.20;;;42.40;28.90;;;;;;946375;146;26271;-76
2022/05/17 09:41:17;;;;;;;4.83;2.40;;;42.20;29.20;;;;;;946393;146;26245;-75
2022/05/17 09:43:46;;;;;;;2.72;1.95;;;42.00;29.40;;;;;;946555;146;26248;-77
2022/05/17 09:46:10;;;;;;;2.37;2.17;;;41.90;29.40;;;;;;944763;146;26273;-75
2022/05/17 09:53:48;;;;;;;4.42;2.10;;;41.70;29.50;;;;;;947536;146;26633;-76
2022/05/17 09:56:16;;;;;;;4.25;2.30;;;41.70;29.60;;;;;;946346;147;26260;-76
2022/05/17 09:58:41;;;;;;;5.87;2.37;;;41.60;29.60;;;;;;947953;146;26383;-76
2022/05/17 10:01:13;;;;;;;4.47;2.12;;;41.50;30.00;;;;;;949089;146;26338;-75
2022/05/17 10:03:41;;;;;;;2.47;1.67;;;41.30;29.70;;;;;;948226;146;27305;-75
2022/05/17 10:06:16;;;;;;;2.52;1.80;;;41.10;29.70;;;;;;946508;146;26217;-76
2022/05/17 10:08:45;;;;;;;2.02;1.45;;;40.90;29.60;;;;;;947383;146;27367;-76
2022/05/17 10:11:20;;;;;;;2.12;1.60;;;40.80;29.60;;;;;;948130;146;26268;-77
2022/05/17 10:14:05;;;;;;;2.25;1.67;;;40.70;29.20;;;;;;946866;146;27314;-76
2022/05/17 10:16:50;;;;;;;1.75;1.65;;;40.40;29.00;;;;;;947419;146;26237;-76
2022/05/17 10:19:34;;;;;;;2.42;1.52;;;40.10;28.90;;;;;;947262;146;26340;-76
2022/05/17 10:22:24;;;;;;;3.00;1.55;;;39.60;28.60;;;;;;937824;147;26302;-76
2022/05/17 10:25:06;;;;;;;3.47;1.75;;;39.00;28.70;;;;;;946732;146;26265;-76
2022/05/17 10:27:42;;;;;;;3.35;1.75;;;38.40;29.20;;;;;;945632;146;28822;-75
2022/05/17 10:30:08;;;;;;;2.08;1.45;;;37.90;29.80;;;;;;947816;146;27419;-76
2022/05/17 10:32:52;;;;;;;3.08;2.10;;;37.40;29.90;;;;;;946626;146;27327;-76
2022/05/17 10:35:23;;;;;;;2.52;1.80;;;37.00;30.10;;;;;;945348;146;27327;-76
2022/05/17 10:37:53;;;;;;;2.83;2.00;;;36.60;30.50;;;;;;945491;146;27343;-76
2022/05/17 10:40:19;;;;;;;3.20;2.10;;;36.20;30.60;;;;;;944730;146;28376;-76
2022/05/17 10:42:45;;;;;;;2.40;1.85;;;35.80;30.60;;;;;;946820;146;27399;-76
2022/05/17 10:45:18;;;;;;;1.62;1.52;;;35.50;31.10;;;;;;945981;146;27275;-75
2022/05/17 10:47:56;;;;;;;1.95;1.60;;;35.20;31.30;;;;;;946053;146;27327;-76
2022/05/17 10:50:35;;;;;;;2.67;1.92;;;34.90;31.50;;;;;;926727;146;27382;-75
2022/05/17 10:53:14;;;;;;;2.77;1.85;;;34.60;31.90;;;;;;945679;146;27494;-76
2022/05/17 10:56:17;;;;;;;2.92;2.20;;;34.40;32.20;;;;;;947442;149;28269;-75
2022/05/17 10:59:14;;;;;;;2.62;1.70;;;34.30;32.30;;;;;;948678;149;27341;-76
2022/05/17 11:02:04;;;;;;;2.02;1.72;;;34.10;32.30;;;;;;947466;149;27294;-75
2022/05/17 11:04:37;;;;;;;1.98;1.75;;;33.90;32.30;;;;;;948846;149;27330;-75
2022/05/17 11:07:09;;;;;;;3.83;1.75;;;33.60;32.60;;;;;;947387;149;27507;-76
2022/05/17 11:09:36;;;;;;;2.40;1.80;;;33.40;33.00;;;;;;948911;149;28061;-75
2022/05/17 11:12:09;;;;;;;2.72;1.70;;;33.20;33.20;;;;;;948361;149;27258;-76
2022/05/17 11:14:44;;;;;;;2.85;1.57;;;33.10;33.40;;;;;;946215;149;27327;-75
2022/05/17 11:17:16;;;;;;;3.12;1.75;;;32.90;33.60;;;;;;947232;149;27319;-76
2022/05/17 11:19:52;;;;;;;2.35;1.95;;;32.70;33.70;;;;;;946457;148;27366;-76
2022/05/17 11:22:43;;;;;;;5.62;2.20;;;32.60;33.90;;;;;;935914;149;27443;-76
2022/05/17 11:25:27;;;;;;;1.95;1.57;;;32.40;34.00;;;;;;947402;149;27361;-75
2022/05/17 11:28:08;;;;;;;2.00;1.80;;;32.30;34.40;;;;;;948701;149;27427;-76
2022/05/17 11:30:56;;;;;;;2.17;1.82;;;32.30;34.80;;;;;;948282;148;27318;-76
2022/05/17 11:33:26;;;;;;;2.25;1.85;;;32.30;34.90;;;;;;946965;149;27366;-76
2022/05/17 11:35:52;;;;;;;2.25;1.80;;;32.30;34.80;;;;;;946465;149;27402;-76
2022/05/17 11:38:39;;;;;;;2.50;1.90;;;32.30;34.90;;;;;;947932;149;27319;-76
2022/05/17 11:41:24;;;;;;;2.77;1.85;;;32.30;35.00;;;;;;949580;149;27620;-76
2022/05/17 11:43:56;;;;;;;2.00;1.80;;;32.30;35.10;;;;;;945771;149;27450;-76
2022/05/17 11:46:28;;;;;;;2.25;1.90;;;32.30;35.40;;;;;;949898;149;27370;-76
2022/05/17 11:49:01;;;;;;;1.92;1.72;;;32.30;35.60;;;;;;947590;149;27802;-75
2022/05/17 11:51:31;;;;;;;2.35;1.60;;;32.30;35.60;;;;;;945228;149;27447;-76
2022/05/17 11:53:57;;;;;;;2.30;1.60;;;32.40;35.60;;;;;;948460;149;27435;-76
2022/05/17 11:56:32;;;;;;;2.65;1.27;;;32.50;35.50;;;;;;946832;149;27405;-75
2022/05/17 11:58:56;;;;;;;1.50;1.40;;;32.50;35.30;;;;;;948942;149;27341;-75
2022/05/17 12:01:31;;;;;;;2.15;1.50;;;32.50;35.20;;;;;;946002;149;27290;-76
2022/05/17 12:03:58;;;;;;;1.35;1.25;;;32.50;34.80;;;;;;949448;148;27307;-76
2022/05/17 12:06:34;;;;;;;2.05;1.62;;;32.40;34.60;;;;;;948171;149;27389;-75
2022/05/17 12:09:00;;;;;;;1.15;1.05;;;32.30;34.70;;;;;;948292;149;27354;-76
2022/05/17 12:11:30;;;;;;;1.72;1.10;;;32.10;34.70;;;;;;948048;149;27355;-76
2022/05/17 12:14:20;;;;;;;0.80;0.80;;;31.90;34.80;;;;;;946527;149;27346;-75
2022/05/17 12:16:45;;;;;;;1.20;1.20;;;31.80;34.90;;;;;;949147;149;27726;-75
2022/05/17 12:19:30;;;;;;;1.12;0.95;;;31.60;34.80;;;;;;947239;149;27448;-75
2022/05/17 12:22:00;;;;;;;2.08;1.22;;;31.50;35.10;;;;;;947462;149;27442;-75
2022/05/17 12:24:41;;;;;;;0.90;0.90;;;31.30;35.10;;;;;;946081;149;27361;-75
2022/05/17 12:27:10;;;;;;;0.93;0.90;;;31.20;35.00;;;;;;949705;149;28291;-76
2022/05/17 12:32:30;;;;;;;0.68;0.68;;;30.90;35.00;;;;;;947176;149;27849;-75
2022/05/17 12:34:57;;;;;;;1.10;0.90;;;30.70;35.20;;;;;;947766;149;27332;-75
2022/05/17 12:37:26;;;;;;;1.25;0.70;;;30.60;35.20;;;;;;947411;149;27377;-75
2022/05/17 12:45:28;;;;;;;0.82;0.80;;;30.20;35.60;;;;;;948770;149;27338;-76
2022/05/17 12:47:54;;;;;;;1.45;0.65;;;30.10;35.60;;;;;;947903;149;27475;-75
2022/05/17 12:52:46;;;;;;;1.25;0.85;;;30.00;35.80;;;;;;968674;144;38007;-75
2022/05/17 12:55:11;;;;;;;1.12;0.80;;;29.90;36.20;;;;;;954755;149;27334;-74
2022/05/17 12:57:38;;;;;;;0.95;0.70;;;29.80;36.20;;;;;;953489;149;27324;-74
2022/05/17 13:00:10;;;;;;;0.80;0.60;;;29.70;36.30;;;;;;957235;149;27319;-74
2022/05/17 13:02:37;;;;;;;0.62;0.62;;;29.70;36.40;;;;;;956594;149;27484;-75
2022/05/17 13:05:03;;;;;;;1.67;1.05;;;29.60;36.30;;;;;;954482;149;27245;-73
2022/05/17 13:07:30;;;;;;;0.85;0.82;;;29.70;36.40;;;;;;954798;148;27404;-74
2022/05/17 13:09:56;;;;;;;1.35;0.70;;;29.70;36.50;;;;;;956605;149;27389;-74
2022/05/17 13:12:23;;;;;;;0.85;0.82;;;29.70;36.40;;;;;;954307;149;27409;-75
2022/05/17 13:14:51;;;;;;;1.32;0.75;;;29.70;36.50;;;;;;956824;149;27307;-74
2022/05/17 13:17:19;;;;;;;0.90;0.80;;;29.80;36.50;;;;;;953465;149;27775;-75
2022/05/17 13:19:46;;;;;;;0.62;0.62;;;29.80;36.50;;;;;;954304;148;27369;-75